createdAt,value
2022-12-09T09:29:03.527Z,360
2022-12-09T09:31:05.293Z,360
2022-12-09T09:35:08.614Z,360
2022-12-09T09:39:11.834Z,360
2022-12-09T09:41:13.318Z,156
2022-12-09T09:45:16.080Z,157
2022-12-09T09:47:17.653Z,157
2022-12-09T09:49:18.253Z,158
2022-12-09T09:51:19.888Z,158
2022-12-09T09:57:24.159Z,160
2022-12-09T09:59:26.281Z,160
2022-12-09T10:01:27.774Z,160
2022-12-09T10:03:29.129Z,161
2022-12-09T10:07:31.331Z,161
2022-12-09T10:09:33.141Z,161
2022-12-09T10:13:35.350Z,163
2022-12-09T10:17:38.245Z,164
2022-12-09T10:19:39.287Z,164
2022-12-09T10:21:41.021Z,164
2022-12-09T10:23:41.888Z,164
2022-12-09T10:25:43.683Z,164
2022-12-09T10:27:45.288Z,164
2022-12-09T10:29:47.762Z,164
2022-12-09T10:31:49.085Z,164
2022-12-09T10:33:50.506Z,164
2022-12-09T10:35:51.236Z,164
2022-12-09T10:37:52.817Z,164
2022-12-09T10:39:54.254Z,164
2022-12-09T10:41:55.929Z,164
2022-12-09T10:43:57.367Z,164
2022-12-09T10:46:18.686Z,164
2022-12-09T10:50:01.112Z,164
2022-12-09T10:52:03.109Z,164
2022-12-09T10:54:04.979Z,164
2022-12-09T10:56:05.784Z,164
2022-12-09T11:00:10.874Z,360
2022-12-09T11:02:11.999Z,25
2022-12-09T11:04:13.485Z,25
2022-12-09T11:06:14.598Z,25
2022-12-09T11:10:19.499Z,25
2022-12-09T11:12:19.516Z,360
2022-12-09T11:14:20.515Z,360
2022-12-09T11:16:22.183Z,360
2022-12-09T11:20:25.480Z,360
2022-12-09T11:22:26.660Z,360
2022-12-09T11:24:28.437Z,109
2022-12-09T11:26:29.090Z,360
2022-12-09T11:28:31.123Z,104
2022-12-09T11:31:32.551Z,104
2022-12-09T11:33:18.625Z,105
2022-12-09T11:37:21.357Z,360
2022-12-09T11:39:23.248Z,360
2022-12-09T11:41:24.632Z,101
2022-12-09T11:43:26.568Z,360
2022-12-09T11:47:31.507Z,360
2022-12-09T11:49:30.976Z,360
2022-12-09T11:51:32.750Z,360
2022-12-09T11:53:34.121Z,360
2022-12-09T11:59:38.834Z,360
2022-12-09T12:01:40.569Z,360
2022-12-09T12:03:41.869Z,360
2022-12-09T12:05:43.600Z,360
2022-12-09T12:09:47.335Z,49
2022-12-09T12:11:48.631Z,31
2022-12-09T12:13:50.084Z,32
2022-12-09T12:15:51.293Z,35
2022-12-09T12:19:54.720Z,29
2022-12-09T12:21:55.905Z,29
2022-12-09T12:25:59.442Z,360
2022-12-09T12:28:00.878Z,360
2022-12-09T12:30:02.811Z,360
2022-12-09T12:32:04.092Z,360
2022-12-09T12:34:23.881Z,85
2022-12-09T12:36:07.070Z,360
2022-12-09T12:40:10.129Z,360
2022-12-09T12:42:11.229Z,360
2022-12-09T12:44:12.440Z,360
2022-12-09T12:46:14.326Z,360
2022-12-09T12:48:16.144Z,360
2022-12-09T12:52:47.241Z,70
2022-12-09T12:56:21.752Z,72
2022-12-09T12:58:23.328Z,74
2022-12-09T13:02:26.343Z,360
2022-12-09T13:04:27.890Z,360
2022-12-09T13:08:30.939Z,360
2022-12-09T13:12:33.657Z,360
2022-12-09T13:14:35.285Z,360
2022-12-09T13:18:37.656Z,346
2022-12-09T13:22:40.763Z,346
2022-12-09T13:24:41.878Z,346
2022-12-09T13:28:44.915Z,346
2022-12-09T13:30:49.708Z,346
2022-12-09T13:32:47.392Z,346
2022-12-09T13:34:48.493Z,346
2022-12-09T13:40:52.899Z,346
2022-12-09T13:42:54.235Z,346
2022-12-09T13:44:55.618Z,346
2022-12-09T13:46:57.193Z,346
2022-12-09T13:51:00.414Z,346
2022-12-09T13:53:02.253Z,346
2022-12-09T13:55:03.489Z,346
2022-12-09T13:57:05.011Z,346
2022-12-09T14:01:07.387Z,346
2022-12-09T14:03:10.402Z,346
2022-12-09T14:05:10.631Z,104
2022-12-09T14:07:11.827Z,104
2022-12-09T14:09:12.983Z,104
2022-12-09T14:11:14.574Z,104
2022-12-09T14:13:15.800Z,104
2022-12-09T14:15:16.846Z,104
2022-12-09T14:17:18.413Z,104
2022-12-09T14:19:19.613Z,104
2022-12-09T14:21:21.292Z,104
2022-12-09T14:23:23.054Z,104
2022-12-09T14:25:24.551Z,104
2022-12-09T14:27:26.356Z,104
2022-12-09T14:29:28.352Z,104
2022-12-09T14:33:31.717Z,104
2022-12-09T14:35:32.978Z,104
2022-12-09T14:37:34.929Z,104
2022-12-09T14:39:36.473Z,104
2022-12-09T14:43:39.639Z,104
2022-12-09T14:45:41.116Z,104
2022-12-09T14:47:42.895Z,104
2022-12-09T14:49:49.027Z,104
2022-12-09T14:51:46.453Z,103
2022-12-09T14:53:47.738Z,103
2022-12-09T14:55:49.043Z,103
2022-12-09T14:57:50.881Z,104
2022-12-09T14:59:52.597Z,103
2022-12-09T15:01:54.485Z,104
2022-12-09T15:03:55.865Z,103
2022-12-09T15:05:57.308Z,104
2022-12-09T15:07:59.004Z,104
2022-12-09T15:10:00.292Z,103
2022-12-09T15:12:01.450Z,103
2022-12-09T15:16:04.028Z,103
2022-12-09T15:18:05.821Z,103
2022-12-09T15:20:07.783Z,103
2022-12-09T15:22:09.775Z,103
2022-12-09T15:26:13.014Z,103
2022-12-09T15:28:14.244Z,103
2022-12-09T15:30:16.085Z,103
2022-12-09T15:32:17.504Z,103
2022-12-09T15:34:23.281Z,103
2022-12-09T15:36:19.997Z,103
2022-12-09T15:38:21.322Z,104
2022-12-09T15:40:22.821Z,103
2022-12-09T15:42:24.451Z,103
2022-12-09T15:44:26.331Z,103
2022-12-09T15:46:27.792Z,103
2022-12-09T15:48:28.931Z,103
2022-12-09T15:50:30.120Z,103
2022-12-09T15:52:32.089Z,103
2022-12-09T15:54:34.094Z,103
2022-12-09T15:58:37.973Z,103
2022-12-09T16:00:39.861Z,103
2022-12-09T16:02:41.065Z,103
2022-12-09T16:04:42.911Z,103
2022-12-09T16:08:45.563Z,103
2022-12-09T16:10:46.887Z,103
2022-12-09T16:12:48.200Z,103
2022-12-09T16:14:50.201Z,103
2022-12-09T16:16:51.513Z,103
2022-12-09T16:18:53.100Z,103
2022-12-09T16:20:54.443Z,103
2022-12-09T16:22:55.579Z,103
2022-12-09T16:25:13.996Z,103
2022-12-09T16:28:59.686Z,103
2022-12-09T16:31:01.609Z,103
2022-12-09T16:33:02.691Z,103
2022-12-09T16:35:04.163Z,103
2022-12-09T16:37:09.450Z,103
2022-12-09T16:41:08.361Z,103
2022-12-09T16:43:09.618Z,103
2022-12-09T16:45:11.580Z,103
2022-12-09T16:47:13.622Z,103
2022-12-09T16:51:16.325Z,103
2022-12-09T16:53:17.930Z,103
2022-12-09T16:55:19.136Z,103
2022-12-09T16:57:20.510Z,103
2022-12-09T17:01:23.503Z,360
2022-12-09T17:03:25.444Z,360
2022-12-09T17:05:26.622Z,102
2022-12-09T17:07:27.960Z,360
2022-12-09T17:13:32.467Z,360
2022-12-09T17:15:34.503Z,360
2022-12-09T17:17:35.574Z,360
2022-12-09T17:19:37.264Z,360
2022-12-09T17:23:40.829Z,360
2022-12-09T17:25:42.614Z,360
2022-12-09T17:27:43.750Z,360
2022-12-09T17:29:45.635Z,360
2022-12-09T17:33:49.011Z,360
2022-12-09T17:35:50.217Z,360
2022-12-09T17:39:57.151Z,360
2022-12-09T17:43:56.167Z,360
2022-12-09T17:45:57.754Z,360
2022-12-09T17:50:00.320Z,360
2022-12-09T17:54:03.447Z,360
2022-12-09T17:56:05.063Z,360
2022-12-09T18:00:08.439Z,360
2022-12-09T18:02:09.665Z,360
2022-12-09T18:04:10.880Z,360
2022-12-09T18:06:12.577Z,360
2022-12-09T18:10:15.621Z,360
2022-12-09T18:12:16.685Z,360
2022-12-09T18:17:03.446Z,360
2022-12-09T18:19:04.772Z,360
2022-12-09T18:21:09.414Z,360
2022-12-09T18:23:08.043Z,360
2022-12-09T18:27:10.922Z,360
2022-12-09T18:29:12.652Z,360
2022-12-09T18:31:14.524Z,360
2022-12-09T18:33:15.937Z,360
2022-12-09T18:35:17.801Z,360
2022-12-09T18:37:18.885Z,360
2022-12-09T18:39:20.331Z,360
2022-12-09T18:41:22.267Z,360
2022-12-09T18:43:24.002Z,360
2022-12-09T18:45:25.318Z,360
2022-12-09T18:47:27.053Z,360
2022-12-09T18:49:28.125Z,360
2022-12-09T18:51:29.560Z,360
2022-12-09T18:53:31.531Z,360
2022-12-09T18:55:32.925Z,360
2022-12-09T18:59:36.124Z,360
2022-12-09T19:01:38.072Z,360
2022-12-09T19:05:40.830Z,360
2022-12-09T19:09:44.342Z,360
2022-12-09T19:11:46.161Z,360
2022-12-09T19:13:47.330Z,360
2022-12-09T19:15:48.587Z,360
2022-12-09T19:17:50.368Z,360
2022-12-09T19:19:52.169Z,360
2022-12-09T19:21:53.893Z,360
2022-12-09T19:23:55.233Z,360
2022-12-09T19:25:57.251Z,360
2022-12-09T19:27:59.261Z,360
2022-12-09T19:30:01.040Z,360
2022-12-09T19:32:02.183Z,360
2022-12-09T19:34:03.908Z,360
2022-12-09T19:36:05.725Z,360
2022-12-09T19:38:07.110Z,360
2022-12-09T19:42:09.398Z,360
2022-12-09T19:44:11.037Z,360
2022-12-09T19:48:14.251Z,360
2022-12-09T19:52:16.679Z,360
2022-12-09T19:54:20.498Z,360
2022-12-09T19:56:20.230Z,360
2022-12-09T19:58:22.276Z,360
2022-12-09T20:00:23.488Z,360
2022-12-09T20:02:25.448Z,360
2022-12-09T20:04:48.536Z,360
2022-12-09T20:06:28.721Z,360
2022-12-09T20:08:30.438Z,360
2022-12-09T20:12:33.732Z,360
2022-12-09T20:14:35.370Z,360
2022-12-09T20:16:37.389Z,360
2022-12-09T20:18:38.408Z,360
2022-12-09T20:20:41.982Z,360
2022-12-09T20:24:43.350Z,360
2022-12-09T20:26:45.327Z,360
2022-12-09T20:30:48.755Z,360
2022-12-09T20:34:51.672Z,360
2022-12-09T20:36:53.239Z,360
2022-12-09T20:38:55.110Z,360
2022-12-09T20:40:56.267Z,360
2022-12-09T20:42:57.781Z,360
2022-12-09T20:44:59.108Z,360
2022-12-09T20:47:00.386Z,360
2022-12-09T20:49:02.185Z,360
2022-12-09T20:51:03.521Z,360
2022-12-09T20:53:05.232Z,360
2022-12-09T20:55:06.539Z,360
2022-12-09T20:57:08.213Z,360
2022-12-09T20:59:10.075Z,360
2022-12-09T21:01:11.381Z,360
2022-12-09T21:03:13.023Z,360
2022-12-09T21:07:16.670Z,360
2022-12-09T21:09:18.492Z,360
2022-12-09T21:13:20.914Z,360
2022-12-09T21:17:24.118Z,360
2022-12-09T21:19:26.095Z,360
2022-12-09T21:21:27.203Z,360
2022-12-09T21:23:34.020Z,360
2022-12-09T21:27:31.799Z,360
2022-12-09T21:29:32.894Z,360
2022-12-09T21:31:34.320Z,360
2022-12-09T21:33:35.421Z,360
2022-12-09T21:37:38.508Z,360
2022-12-09T21:39:40.086Z,360
2022-12-09T21:41:41.401Z,360
2022-12-09T21:43:42.539Z,360
2022-12-09T21:45:44.516Z,360
2022-12-09T21:49:47.412Z,360
2022-12-09T21:51:48.963Z,360
2022-12-09T21:53:50.142Z,360
2022-12-09T21:55:51.241Z,360
2022-12-09T21:59:54.013Z,360
2022-12-09T22:01:55.485Z,360
2022-12-09T22:05:58.637Z,360
2022-12-09T22:10:02.428Z,360
2022-12-09T22:12:03.887Z,360
2022-12-09T22:16:06.995Z,360
2022-12-09T22:20:44.376Z,360
2022-12-09T22:22:12.223Z,360
2022-12-09T22:24:14.222Z,360
2022-12-09T22:26:15.804Z,360
2022-12-09T22:28:16.980Z,360
2022-12-09T22:32:20.167Z,360
2022-12-09T22:34:22.144Z,360
2022-12-09T22:36:24.099Z,360
2022-12-09T22:38:25.350Z,360
2022-12-09T22:42:27.887Z,360
2022-12-09T22:44:29.151Z,360
2022-12-09T22:48:32.869Z,360
2022-12-09T22:52:36.083Z,360
2022-12-09T22:54:37.877Z,360
2022-12-09T22:58:40.515Z,360
2022-12-09T23:02:44.433Z,360
2022-12-09T23:04:46.331Z,360
2022-12-09T23:08:49.614Z,360
2022-12-09T23:10:51.701Z,360
2022-12-09T23:12:52.729Z,360
2022-12-09T23:14:54.696Z,360
2022-12-09T23:20:58.913Z,360
2022-12-09T23:23:00.006Z,360
2022-12-09T23:25:01.570Z,360
2022-12-09T23:27:03.458Z,360
2022-12-09T23:31:05.997Z,360
2022-12-09T23:33:07.333Z,360
2022-12-09T23:35:09.286Z,360
2022-12-09T23:37:10.714Z,360
2022-12-09T23:41:13.971Z,360
2022-12-09T23:43:15.559Z,360
2022-12-09T23:45:17.297Z,360
2022-12-09T23:47:18.345Z,360
2022-12-09T23:49:19.489Z,360
2022-12-09T23:51:21.365Z,360
2022-12-09T23:53:23.178Z,360
2022-12-09T23:55:24.499Z,360
2022-12-09T23:57:26.444Z,360
2022-12-09T23:59:27.772Z,360
